sensor_id;sensor_type;location;lat;lon;timestamp;temperature;humidity
29577;DHT22;16509;53.862;10.672;2022-07-18T00:01:58;16.10;99.90
29577;DHT22;16509;53.862;10.672;2022-07-18T00:04:24;16.00;99.90
29577;DHT22;16509;53.862;10.672;2022-07-18T00:06:50;16.00;99.90
29577;DHT22;16509;53.862;10.672;2022-07-18T00:09:16;16.10;99.90
29577;DHT22;16509;53.862;10.672;2022-07-18T00:11:43;15.70;99.90
29577;DHT22;16509;53.862;10.672;2022-07-18T00:14:09;16.10;99.90
29577;DHT22;16509;53.862;10.672;2022-07-18T00:16:35;16.10;99.90
29577;DHT22;16509;53.862;10.672;2022-07-18T00:19:00;16.10;99.90
29577;DHT22;16509;53.862;10.672;2022-07-18T00:21:27;16.00;99.90
29577;DHT22;16509;53.862;10.672;2022-07-18T00:23:53;15.90;99.90
29577;DHT22;16509;53.862;10.672;2022-07-18T00:26:19;15.90;99.90
29577;DHT22;16509;53.862;10.672;2022-07-18T00:28:44;16.00;99.90
29577;DHT22;16509;53.862;10.672;2022-07-18T00:31:10;16.00;99.90
29577;DHT22;16509;53.862;10.672;2022-07-18T00:33:36;16.00;99.90
29577;DHT22;16509;53.862;10.672;2022-07-18T00:36:01;16.20;99.90
29577;DHT22;16509;53.862;10.672;2022-07-18T00:38:27;15.90;99.90
29577;DHT22;16509;53.862;10.672;2022-07-18T00:40:53;15.80;99.90
29577;DHT22;16509;53.862;10.672;2022-07-18T00:43:19;16.00;99.90
29577;DHT22;16509;53.862;10.672;2022-07-18T00:45:48;15.80;99.90
29577;DHT22;16509;53.862;10.672;2022-07-18T00:48:15;16.00;99.90
29577;DHT22;16509;53.862;10.672;2022-07-18T00:50:42;15.90;99.90
29577;DHT22;16509;53.862;10.672;2022-07-18T00:53:08;15.90;99.90
29577;DHT22;16509;53.862;10.672;2022-07-18T00:55:38;15.90;99.90
29577;DHT22;16509;53.862;10.672;2022-07-18T00:58:04;15.70;99.90
29577;DHT22;16509;53.862;10.672;2022-07-18T01:00:30;15.60;99.90
29577;DHT22;16509;53.862;10.672;2022-07-18T01:03:14;15.60;99.90
29577;DHT22;16509;53.862;10.672;2022-07-18T01:05:40;15.60;99.90
29577;DHT22;16509;53.862;10.672;2022-07-18T01:08:06;15.50;99.90
29577;DHT22;16509;53.862;10.672;2022-07-18T01:10:31;15.50;99.90
29577;DHT22;16509;53.862;10.672;2022-07-18T01:12:57;15.60;99.90
29577;DHT22;16509;53.862;10.672;2022-07-18T01:15:23;15.50;99.90
29577;DHT22;16509;53.862;10.672;2022-07-18T01:17:48;15.40;99.90
29577;DHT22;16509;53.862;10.672;2022-07-18T01:20:15;15.20;99.90
29577;DHT22;16509;53.862;10.672;2022-07-18T01:22:41;15.20;99.90
29577;DHT22;16509;53.862;10.672;2022-07-18T01:25:09;15.20;99.90
29577;DHT22;16509;53.862;10.672;2022-07-18T01:27:34;15.30;99.90
29577;DHT22;16509;53.862;10.672;2022-07-18T01:30:00;15.30;99.90
29577;DHT22;16509;53.862;10.672;2022-07-18T01:32:26;15.30;99.90
29577;DHT22;16509;53.862;10.672;2022-07-18T01:34:51;15.30;99.90
29577;DHT22;16509;53.862;10.672;2022-07-18T01:37:17;15.20;99.90
29577;DHT22;16509;53.862;10.672;2022-07-18T01:39:44;15.30;99.90
29577;DHT22;16509;53.862;10.672;2022-07-18T01:42:11;15.30;99.90
29577;DHT22;16509;53.862;10.672;2022-07-18T01:44:37;15.20;99.90
29577;DHT22;16509;53.862;10.672;2022-07-18T01:47:05;15.20;99.90
29577;DHT22;16509;53.862;10.672;2022-07-18T01:49:32;15.20;99.90
29577;DHT22;16509;53.862;10.672;2022-07-18T01:51:59;15.20;99.90
29577;DHT22;16509;53.862;10.672;2022-07-18T01:54:30;15.10;99.90
29577;DHT22;16509;53.862;10.672;2022-07-18T01:56:57;15.10;99.90
29577;DHT22;16509;53.862;10.672;2022-07-18T01:59:23;14.90;99.90
29577;DHT22;16509;53.862;10.672;2022-07-18T02:01:49;15.20;99.90
29577;DHT22;16509;53.862;10.672;2022-07-18T02:04:15;15.00;99.90
29577;DHT22;16509;53.862;10.672;2022-07-18T02:06:41;15.10;99.90
29577;DHT22;16509;53.862;10.672;2022-07-18T02:09:08;15.10;99.90
29577;DHT22;16509;53.862;10.672;2022-07-18T02:11:35;14.80;99.90
29577;DHT22;16509;53.862;10.672;2022-07-18T02:14:01;15.20;99.90
29577;DHT22;16509;53.862;10.672;2022-07-18T02:16:26;14.20;99.90
29577;DHT22;16509;53.862;10.672;2022-07-18T02:18:53;14.80;99.90
29577;DHT22;16509;53.862;10.672;2022-07-18T02:21:18;14.90;99.90
29577;DHT22;16509;53.862;10.672;2022-07-18T02:23:44;15.00;99.90
29577;DHT22;16509;53.862;10.672;2022-07-18T02:26:10;14.80;99.90
29577;DHT22;16509;53.862;10.672;2022-07-18T02:28:36;14.60;99.90
29577;DHT22;16509;53.862;10.672;2022-07-18T02:31:03;14.80;99.90
29577;DHT22;16509;53.862;10.672;2022-07-18T02:33:29;14.80;99.90
29577;DHT22;16509;53.862;10.672;2022-07-18T02:35:55;14.80;99.90
29577;DHT22;16509;53.862;10.672;2022-07-18T02:38:20;14.80;99.90
29577;DHT22;16509;53.862;10.672;2022-07-18T02:40:46;14.80;99.90
29577;DHT22;16509;53.862;10.672;2022-07-18T02:43:12;14.30;99.90
29577;DHT22;16509;53.862;10.672;2022-07-18T02:45:38;14.90;99.90
29577;DHT22;16509;53.862;10.672;2022-07-18T02:48:03;14.80;99.90
29577;DHT22;16509;53.862;10.672;2022-07-18T02:50:29;14.70;99.90
29577;DHT22;16509;53.862;10.672;2022-07-18T02:52:55;14.70;99.90
29577;DHT22;16509;53.862;10.672;2022-07-18T02:55:22;15.00;99.90
29577;DHT22;16509;53.862;10.672;2022-07-18T02:57:49;14.60;99.90
29577;DHT22;16509;53.862;10.672;2022-07-18T03:00:15;14.60;99.90
29577;DHT22;16509;53.862;10.672;2022-07-18T03:02:42;14.90;99.90
29577;DHT22;16509;53.862;10.672;2022-07-18T03:05:08;14.70;99.90
29577;DHT22;16509;53.862;10.672;2022-07-18T03:07:34;14.70;99.90
29577;DHT22;16509;53.862;10.672;2022-07-18T03:09:59;15.10;99.90
29577;DHT22;16509;53.862;10.672;2022-07-18T03:12:25;15.10;99.90
29577;DHT22;16509;53.862;10.672;2022-07-18T03:14:50;14.60;99.90
29577;DHT22;16509;53.862;10.672;2022-07-18T03:17:16;14.70;99.90
29577;DHT22;16509;53.862;10.672;2022-07-18T03:19:41;14.50;99.90
29577;DHT22;16509;53.862;10.672;2022-07-18T03:22:07;14.70;99.90
29577;DHT22;16509;53.862;10.672;2022-07-18T03:24:33;14.10;99.90
29577;DHT22;16509;53.862;10.672;2022-07-18T03:26:59;14.00;99.90
29577;DHT22;16509;53.862;10.672;2022-07-18T03:29:25;14.40;99.90
29577;DHT22;16509;53.862;10.672;2022-07-18T03:31:50;14.30;99.90
29577;DHT22;16509;53.862;10.672;2022-07-18T03:34:16;14.90;99.90
29577;DHT22;16509;53.862;10.672;2022-07-18T03:36:42;14.90;99.90
29577;DHT22;16509;53.862;10.672;2022-07-18T03:39:08;14.90;99.90
29577;DHT22;16509;53.862;10.672;2022-07-18T03:41:34;14.70;99.90
29577;DHT22;16509;53.862;10.672;2022-07-18T03:44:01;14.60;99.90
29577;DHT22;16509;53.862;10.672;2022-07-18T03:46:26;14.50;99.90
29577;DHT22;16509;53.862;10.672;2022-07-18T03:48:52;14.30;99.90
29577;DHT22;16509;53.862;10.672;2022-07-18T03:51:17;14.60;99.90
29577;DHT22;16509;53.862;10.672;2022-07-18T03:53:43;14.70;99.90
29577;DHT22;16509;53.862;10.672;2022-07-18T03:56:09;14.40;99.90
29577;DHT22;16509;53.862;10.672;2022-07-18T03:58:34;14.60;99.90
29577;DHT22;16509;53.862;10.672;2022-07-18T04:01:00;14.30;99.90
29577;DHT22;16509;53.862;10.672;2022-07-18T04:03:26;14.30;99.90
29577;DHT22;16509;53.862;10.672;2022-07-18T04:05:51;14.80;99.90
29577;DHT22;16509;53.862;10.672;2022-07-18T04:08:17;14.50;99.90
29577;DHT22;16509;53.862;10.672;2022-07-18T04:10:43;14.80;99.90
29577;DHT22;16509;53.862;10.672;2022-07-18T04:13:09;14.40;99.90
29577;DHT22;16509;53.862;10.672;2022-07-18T04:15:35;14.80;99.90
29577;DHT22;16509;53.862;10.672;2022-07-18T04:18:00;14.80;99.90
29577;DHT22;16509;53.862;10.672;2022-07-18T04:20:26;14.90;99.90
29577;DHT22;16509;53.862;10.672;2022-07-18T04:22:55;14.90;99.90
29577;DHT22;16509;53.862;10.672;2022-07-18T04:25:24;14.80;99.90
29577;DHT22;16509;53.862;10.672;2022-07-18T04:27:50;14.90;99.90
29577;DHT22;16509;53.862;10.672;2022-07-18T04:30:19;15.40;99.90
29577;DHT22;16509;53.862;10.672;2022-07-18T04:32:44;15.00;99.90
29577;DHT22;16509;53.862;10.672;2022-07-18T04:35:10;15.10;99.90
29577;DHT22;16509;53.862;10.672;2022-07-18T04:37:37;15.10;99.90
29577;DHT22;16509;53.862;10.672;2022-07-18T04:40:04;15.20;99.90
29577;DHT22;16509;53.862;10.672;2022-07-18T04:42:30;15.10;99.90
29577;DHT22;16509;53.862;10.672;2022-07-18T04:44:56;14.70;99.90
29577;DHT22;16509;53.862;10.672;2022-07-18T04:47:22;15.10;99.90
29577;DHT22;16509;53.862;10.672;2022-07-18T04:49:48;16.30;99.90
29577;DHT22;16509;53.862;10.672;2022-07-18T04:52:13;15.30;99.90
29577;DHT22;16509;53.862;10.672;2022-07-18T04:54:39;15.60;99.90
29577;DHT22;16509;53.862;10.672;2022-07-18T04:57:04;15.20;99.90
29577;DHT22;16509;53.862;10.672;2022-07-18T04:59:30;14.90;99.90
29577;DHT22;16509;53.862;10.672;2022-07-18T05:01:56;15.40;99.90
29577;DHT22;16509;53.862;10.672;2022-07-18T05:04:21;15.10;99.90
29577;DHT22;16509;53.862;10.672;2022-07-18T05:06:47;15.50;99.90
29577;DHT22;16509;53.862;10.672;2022-07-18T05:09:12;15.20;99.90
29577;DHT22;16509;53.862;10.672;2022-07-18T05:11:38;15.70;99.90
29577;DHT22;16509;53.862;10.672;2022-07-18T05:14:05;15.40;99.90
29577;DHT22;16509;53.862;10.672;2022-07-18T05:16:30;15.80;99.90
29577;DHT22;16509;53.862;10.672;2022-07-18T05:18:56;16.10;99.90
29577;DHT22;16509;53.862;10.672;2022-07-18T05:21:22;16.00;99.90
29577;DHT22;16509;53.862;10.672;2022-07-18T05:23:47;16.30;99.90
29577;DHT22;16509;53.862;10.672;2022-07-18T05:26:13;16.20;99.90
29577;DHT22;16509;53.862;10.672;2022-07-18T05:28:38;16.20;99.90
29577;DHT22;16509;53.862;10.672;2022-07-18T05:31:04;16.20;99.90
29577;DHT22;16509;53.862;10.672;2022-07-18T05:33:30;16.20;99.90
29577;DHT22;16509;53.862;10.672;2022-07-18T05:35:55;16.20;99.90
29577;DHT22;16509;53.862;10.672;2022-07-18T05:38:21;16.40;99.90
29577;DHT22;16509;53.862;10.672;2022-07-18T05:40:46;16.40;99.90
29577;DHT22;16509;53.862;10.672;2022-07-18T05:43:12;16.30;99.90
29577;DHT22;16509;53.862;10.672;2022-07-18T05:45:38;16.70;99.90
29577;DHT22;16509;53.862;10.672;2022-07-18T05:48:04;16.60;99.90
29577;DHT22;16509;53.862;10.672;2022-07-18T05:50:30;16.60;99.90
29577;DHT22;16509;53.862;10.672;2022-07-18T05:52:56;17.10;99.90
29577;DHT22;16509;53.862;10.672;2022-07-18T05:55:21;16.80;99.90
29577;DHT22;16509;53.862;10.672;2022-07-18T05:57:47;16.50;99.90
29577;DHT22;16509;53.862;10.672;2022-07-18T06:00:16;16.70;99.90
29577;DHT22;16509;53.862;10.672;2022-07-18T06:02:42;16.80;99.90
29577;DHT22;16509;53.862;10.672;2022-07-18T06:05:08;16.70;99.90
29577;DHT22;16509;53.862;10.672;2022-07-18T06:07:34;16.90;99.90
29577;DHT22;16509;53.862;10.672;2022-07-18T06:10:00;17.00;99.90
29577;DHT22;16509;53.862;10.672;2022-07-18T06:12:29;16.90;99.90
29577;DHT22;16509;53.862;10.672;2022-07-18T06:14:56;17.10;99.90
29577;DHT22;16509;53.862;10.672;2022-07-18T06:17:22;18.90;99.90
29577;DHT22;16509;53.862;10.672;2022-07-18T06:19:48;17.00;99.90
29577;DHT22;16509;53.862;10.672;2022-07-18T06:22:13;17.00;99.90
29577;DHT22;16509;53.862;10.672;2022-07-18T06:24:39;17.00;99.90
29577;DHT22;16509;53.862;10.672;2022-07-18T06:27:04;17.00;99.90
29577;DHT22;16509;53.862;10.672;2022-07-18T06:29:30;17.10;99.90
29577;DHT22;16509;53.862;10.672;2022-07-18T06:31:55;17.00;99.90
29577;DHT22;16509;53.862;10.672;2022-07-18T06:34:21;17.00;99.90
29577;DHT22;16509;53.862;10.672;2022-07-18T06:36:47;17.10;99.90
29577;DHT22;16509;53.862;10.672;2022-07-18T06:39:12;17.20;99.90
29577;DHT22;16509;53.862;10.672;2022-07-18T06:41:40;17.30;99.90
29577;DHT22;16509;53.862;10.672;2022-07-18T06:44:06;17.50;99.90
29577;DHT22;16509;53.862;10.672;2022-07-18T06:46:32;17.50;99.90
29577;DHT22;16509;53.862;10.672;2022-07-18T06:48:57;17.50;99.90
29577;DHT22;16509;53.862;10.672;2022-07-18T06:51:23;17.60;99.90
29577;DHT22;16509;53.862;10.672;2022-07-18T06:53:50;17.60;99.90
29577;DHT22;16509;53.862;10.672;2022-07-18T06:56:17;17.50;99.90
29577;DHT22;16509;53.862;10.672;2022-07-18T06:58:43;17.70;99.90
29577;DHT22;16509;53.862;10.672;2022-07-18T07:01:14;17.40;99.90
29577;DHT22;16509;53.862;10.672;2022-07-18T07:03:40;17.80;99.90
29577;DHT22;16509;53.862;10.672;2022-07-18T07:06:06;17.90;99.90
29577;DHT22;16509;53.862;10.672;2022-07-18T07:08:31;17.90;99.90
29577;DHT22;16509;53.862;10.672;2022-07-18T07:10:57;18.10;99.90
29577;DHT22;16509;53.862;10.672;2022-07-18T07:13:23;18.20;99.90
29577;DHT22;16509;53.862;10.672;2022-07-18T07:15:48;18.30;99.90
29577;DHT22;16509;53.862;10.672;2022-07-18T07:18:14;18.40;99.90
29577;DHT22;16509;53.862;10.672;2022-07-18T07:20:39;18.40;99.90
29577;DHT22;16509;53.862;10.672;2022-07-18T07:23:05;18.60;99.90
29577;DHT22;16509;53.862;10.672;2022-07-18T07:25:33;18.70;99.90
29577;DHT22;16509;53.862;10.672;2022-07-18T07:27:59;18.80;99.90
29577;DHT22;16509;53.862;10.672;2022-07-18T07:30:25;18.90;99.90
29577;DHT22;16509;53.862;10.672;2022-07-18T07:32:51;19.00;99.90
29577;DHT22;16509;53.862;10.672;2022-07-18T07:35:18;19.10;99.90
29577;DHT22;16509;53.862;10.672;2022-07-18T07:37:55;19.30;99.90
29577;DHT22;16509;53.862;10.672;2022-07-18T07:40:23;19.30;99.90
29577;DHT22;16509;53.862;10.672;2022-07-18T07:42:53;19.60;99.90
29577;DHT22;16509;53.862;10.672;2022-07-18T07:45:29;19.90;99.90
29577;DHT22;16509;53.862;10.672;2022-07-18T07:47:55;20.30;99.90
29577;DHT22;16509;53.862;10.672;2022-07-18T07:50:20;20.40;99.90
29577;DHT22;16509;53.862;10.672;2022-07-18T07:52:46;20.50;99.90
29577;DHT22;16509;53.862;10.672;2022-07-18T07:55:11;20.40;99.90
29577;DHT22;16509;53.862;10.672;2022-07-18T07:57:37;20.60;99.90
29577;DHT22;16509;53.862;10.672;2022-07-18T08:00:05;20.40;99.90
29577;DHT22;16509;53.862;10.672;2022-07-18T08:02:35;20.70;99.90
29577;DHT22;16509;53.862;10.672;2022-07-18T08:05:01;20.70;99.90
29577;DHT22;16509;53.862;10.672;2022-07-18T08:07:27;20.70;99.90
29577;DHT22;16509;53.862;10.672;2022-07-18T08:09:53;20.80;99.90
29577;DHT22;16509;53.862;10.672;2022-07-18T08:12:18;21.00;99.90
29577;DHT22;16509;53.862;10.672;2022-07-18T08:14:44;21.20;99.90
29577;DHT22;16509;53.862;10.672;2022-07-18T08:17:09;21.30;99.90
29577;DHT22;16509;53.862;10.672;2022-07-18T08:19:35;21.40;99.90
29577;DHT22;16509;53.862;10.672;2022-07-18T08:22:01;21.40;99.90
29577;DHT22;16509;53.862;10.672;2022-07-18T08:24:26;21.30;99.90
29577;DHT22;16509;53.862;10.672;2022-07-18T08:26:52;21.40;99.90
29577;DHT22;16509;53.862;10.672;2022-07-18T08:29:17;21.30;99.90
29577;DHT22;16509;53.862;10.672;2022-07-18T08:31:43;21.70;99.90
29577;DHT22;16509;53.862;10.672;2022-07-18T08:34:08;22.70;99.90
29577;DHT22;16509;53.862;10.672;2022-07-18T08:36:34;21.60;99.90
29577;DHT22;16509;53.862;10.672;2022-07-18T08:38:59;21.80;99.90
29577;DHT22;16509;53.862;10.672;2022-07-18T08:41:25;21.80;99.90
29577;DHT22;16509;53.862;10.672;2022-07-18T08:43:53;21.80;99.90
29577;DHT22;16509;53.862;10.672;2022-07-18T08:46:20;22.00;99.90
29577;DHT22;16509;53.862;10.672;2022-07-18T08:48:50;22.00;99.90
29577;DHT22;16509;53.862;10.672;2022-07-18T08:51:18;22.10;99.90
29577;DHT22;16509;53.862;10.672;2022-07-18T08:53:46;22.20;99.90
29577;DHT22;16509;53.862;10.672;2022-07-18T08:56:12;22.40;99.90
29577;DHT22;16509;53.862;10.672;2022-07-18T08:58:37;22.40;99.90
29577;DHT22;16509;53.862;10.672;2022-07-18T09:01:03;22.20;99.90
29577;DHT22;16509;53.862;10.672;2022-07-18T09:03:29;22.40;99.90
29577;DHT22;16509;53.862;10.672;2022-07-18T09:06:08;22.60;99.90
29577;DHT22;16509;53.862;10.672;2022-07-18T09:08:34;23.00;99.90
29577;DHT22;16509;53.862;10.672;2022-07-18T09:11:01;23.10;99.90
29577;DHT22;16509;53.862;10.672;2022-07-18T09:16:00;23.30;99.90
29577;DHT22;16509;53.862;10.672;2022-07-18T09:18:30;23.70;99.90
29577;DHT22;16509;53.862;10.672;2022-07-18T09:21:23;23.30;99.90
29577;DHT22;16509;53.862;10.672;2022-07-18T09:23:51;23.30;99.90
29577;DHT22;16509;53.862;10.672;2022-07-18T09:29:01;23.50;99.90
29577;DHT22;16509;53.862;10.672;2022-07-18T09:31:26;23.40;99.90
29577;DHT22;16509;53.862;10.672;2022-07-18T09:34:03;23.40;99.90
29577;DHT22;16509;53.862;10.672;2022-07-18T09:36:29;23.50;99.90
29577;DHT22;16509;53.862;10.672;2022-07-18T09:38:59;23.60;99.90
29577;DHT22;16509;53.862;10.672;2022-07-18T09:41:30;24.00;99.90
29577;DHT22;16509;53.862;10.672;2022-07-18T09:43:57;23.80;99.90
29577;DHT22;16509;53.862;10.672;2022-07-18T09:46:23;23.90;99.90
29577;DHT22;16509;53.862;10.672;2022-07-18T09:49:08;23.90;99.90
29577;DHT22;16509;53.862;10.672;2022-07-18T09:51:33;24.10;99.90
29577;DHT22;16509;53.862;10.672;2022-07-18T09:53:59;24.10;99.90
29577;DHT22;16509;53.862;10.672;2022-07-18T09:56:26;24.30;99.90
29577;DHT22;16509;53.862;10.672;2022-07-18T09:58:56;24.10;99.90
29577;DHT22;16509;53.862;10.672;2022-07-18T10:01:22;24.20;99.90
29577;DHT22;16509;53.862;10.672;2022-07-18T10:03:48;24.40;99.90
29577;DHT22;16509;53.862;10.672;2022-07-18T10:06:15;24.60;99.90
29577;DHT22;16509;53.862;10.672;2022-07-18T10:08:41;24.80;99.90
29577;DHT22;16509;53.862;10.672;2022-07-18T10:11:07;24.90;99.90
29577;DHT22;16509;53.862;10.672;2022-07-18T10:13:34;24.90;99.90
29577;DHT22;16509;53.862;10.672;2022-07-18T10:16:00;25.00;99.90
29577;DHT22;16509;53.862;10.672;2022-07-18T10:18:28;25.10;99.90
29577;DHT22;16509;53.862;10.672;2022-07-18T10:23:31;25.40;99.90
29577;DHT22;16509;53.862;10.672;2022-07-18T10:26:19;25.60;99.90
29577;DHT22;16509;53.862;10.672;2022-07-18T10:31:27;25.90;99.90
29577;DHT22;16509;53.862;10.672;2022-07-18T10:34:08;25.80;99.90
29577;DHT22;16509;53.862;10.672;2022-07-18T10:39:35;25.60;99.90
29577;DHT22;16509;53.862;10.672;2022-07-18T11:00:25;26.70;99.90
29577;DHT22;16509;53.862;10.672;2022-07-18T11:03:09;27.10;99.90
29577;DHT22;16509;53.862;10.672;2022-07-18T11:05:44;27.20;99.90
29577;DHT22;16509;53.862;10.672;2022-07-18T11:13:28;26.80;99.90
29577;DHT22;16509;53.862;10.672;2022-07-18T11:23:53;25.90;99.90
29577;DHT22;16509;53.862;10.672;2022-07-18T11:26:23;25.80;99.90
29577;DHT22;16509;53.862;10.672;2022-07-18T11:29:06;25.80;99.90
29577;DHT22;16509;53.862;10.672;2022-07-18T11:34:14;25.60;99.90
29577;DHT22;16509;53.862;10.672;2022-07-18T11:36:42;26.20;99.90
29577;DHT22;16509;53.862;10.672;2022-07-18T11:39:09;25.40;99.90
29577;DHT22;16509;53.862;10.672;2022-07-18T11:41:38;25.70;99.90
29577;DHT22;16509;53.862;10.672;2022-07-18T11:44:18;25.60;99.90
29577;DHT22;16509;53.862;10.672;2022-07-18T11:46:47;25.50;99.90
29577;DHT22;16509;53.862;10.672;2022-07-18T11:49:12;25.50;99.90
29577;DHT22;16509;53.862;10.672;2022-07-18T11:51:41;25.70;99.90
29577;DHT22;16509;53.862;10.672;2022-07-18T11:54:08;25.80;99.90
29577;DHT22;16509;53.862;10.672;2022-07-18T11:56:48;25.80;99.90
29577;DHT22;16509;53.862;10.672;2022-07-18T11:59:14;26.00;99.90
29577;DHT22;16509;53.862;10.672;2022-07-18T12:01:41;27.00;99.90
29577;DHT22;16509;53.862;10.672;2022-07-18T12:04:06;25.80;99.90
29577;DHT22;16509;53.862;10.672;2022-07-18T12:06:32;25.80;99.90
29577;DHT22;16509;53.862;10.672;2022-07-18T12:08:59;25.90;99.90
29577;DHT22;16509;53.862;10.672;2022-07-18T12:11:34;25.90;99.90
29577;DHT22;16509;53.862;10.672;2022-07-18T12:19:06;25.80;99.90
29577;DHT22;16509;53.862;10.672;2022-07-18T12:21:52;25.70;99.90
29577;DHT22;16509;53.862;10.672;2022-07-18T12:27:12;25.50;99.90
29577;DHT22;16509;53.862;10.672;2022-07-18T12:32:29;25.50;99.90
29577;DHT22;16509;53.862;10.672;2022-07-18T12:35:06;25.50;99.90
29577;DHT22;16509;53.862;10.672;2022-07-18T12:37:32;25.40;99.90
29577;DHT22;16509;53.862;10.672;2022-07-18T12:40:09;25.50;99.90
29577;DHT22;16509;53.862;10.672;2022-07-18T12:42:41;25.30;99.90
29577;DHT22;16509;53.862;10.672;2022-07-18T12:45:08;25.30;99.90
29577;DHT22;16509;53.862;10.672;2022-07-18T12:47:36;25.50;99.90
29577;DHT22;16509;53.862;10.672;2022-07-18T12:50:03;25.40;99.90
29577;DHT22;16509;53.862;10.672;2022-07-18T12:52:28;25.40;99.90
29577;DHT22;16509;53.862;10.672;2022-07-18T12:54:54;25.40;99.90
29577;DHT22;16509;53.862;10.672;2022-07-18T12:57:20;25.30;99.90
29577;DHT22;16509;53.862;10.672;2022-07-18T12:59:46;25.40;99.90
29577;DHT22;16509;53.862;10.672;2022-07-18T13:02:13;25.40;99.90
29577;DHT22;16509;53.862;10.672;2022-07-18T13:04:39;25.40;99.90
29577;DHT22;16509;53.862;10.672;2022-07-18T13:07:05;25.20;99.90
29577;DHT22;16509;53.862;10.672;2022-07-18T13:09:30;25.20;99.90
29577;DHT22;16509;53.862;10.672;2022-07-18T13:11:56;25.20;99.90
29577;DHT22;16509;53.862;10.672;2022-07-18T13:14:22;25.20;99.90
29577;DHT22;16509;53.862;10.672;2022-07-18T13:16:47;25.30;99.90
29577;DHT22;16509;53.862;10.672;2022-07-18T13:19:15;25.20;99.90
29577;DHT22;16509;53.862;10.672;2022-07-18T13:21:42;25.10;99.90
29577;DHT22;16509;53.862;10.672;2022-07-18T13:24:08;25.20;99.90
29577;DHT22;16509;53.862;10.672;2022-07-18T13:26:34;25.00;99.90
29577;DHT22;16509;53.862;10.672;2022-07-18T13:28:59;24.90;99.90
29577;DHT22;16509;53.862;10.672;2022-07-18T13:31:25;25.00;99.90
29577;DHT22;16509;53.862;10.672;2022-07-18T13:33:51;24.90;99.90
29577;DHT22;16509;53.862;10.672;2022-07-18T13:36:18;25.10;99.90
29577;DHT22;16509;53.862;10.672;2022-07-18T13:38:43;26.30;99.90
29577;DHT22;16509;53.862;10.672;2022-07-18T13:41:09;25.20;99.90
29577;DHT22;16509;53.862;10.672;2022-07-18T13:43:36;25.20;99.90
29577;DHT22;16509;53.862;10.672;2022-07-18T13:46:11;25.20;99.90
29577;DHT22;16509;53.862;10.672;2022-07-18T13:48:38;25.20;99.90
29577;DHT22;16509;53.862;10.672;2022-07-18T13:51:05;25.20;99.90
29577;DHT22;16509;53.862;10.672;2022-07-18T13:53:31;25.40;99.90
29577;DHT22;16509;53.862;10.672;2022-07-18T13:55:57;25.30;99.90
29577;DHT22;16509;53.862;10.672;2022-07-18T13:58:22;25.40;99.90
29577;DHT22;16509;53.862;10.672;2022-07-18T14:00:49;25.40;99.90
29577;DHT22;16509;53.862;10.672;2022-07-18T14:03:14;25.40;99.90
29577;DHT22;16509;53.862;10.672;2022-07-18T14:05:40;25.50;99.90
29577;DHT22;16509;53.862;10.672;2022-07-18T14:08:07;25.50;99.90
29577;DHT22;16509;53.862;10.672;2022-07-18T14:10:34;25.70;99.90
29577;DHT22;16509;53.862;10.672;2022-07-18T14:13:00;25.80;99.90
29577;DHT22;16509;53.862;10.672;2022-07-18T14:15:26;25.90;99.90
29577;DHT22;16509;53.862;10.672;2022-07-18T14:17:52;26.00;99.90
29577;DHT22;16509;53.862;10.672;2022-07-18T14:20:18;26.10;99.90
29577;DHT22;16509;53.862;10.672;2022-07-18T14:22:45;26.20;99.90
29577;DHT22;16509;53.862;10.672;2022-07-18T14:25:13;26.30;99.90
29577;DHT22;16509;53.862;10.672;2022-07-18T14:27:40;26.30;99.90
29577;DHT22;16509;53.862;10.672;2022-07-18T14:30:07;26.50;99.90
29577;DHT22;16509;53.862;10.672;2022-07-18T14:32:34;26.50;99.90
29577;DHT22;16509;53.862;10.672;2022-07-18T14:34:59;26.40;99.90
29577;DHT22;16509;53.862;10.672;2022-07-18T14:37:25;26.40;99.90
29577;DHT22;16509;53.862;10.672;2022-07-18T14:39:51;26.80;99.90
29577;DHT22;16509;53.862;10.672;2022-07-18T14:42:17;26.30;99.90
29577;DHT22;16509;53.862;10.672;2022-07-18T14:44:42;26.50;99.90
29577;DHT22;16509;53.862;10.672;2022-07-18T14:47:08;26.90;99.90
29577;DHT22;16509;53.862;10.672;2022-07-18T14:49:33;26.50;99.90
29577;DHT22;16509;53.862;10.672;2022-07-18T14:51:59;26.50;99.90
29577;DHT22;16509;53.862;10.672;2022-07-18T14:54:27;26.40;99.90
29577;DHT22;16509;53.862;10.672;2022-07-18T14:56:52;26.40;99.90
29577;DHT22;16509;53.862;10.672;2022-07-18T14:59:19;26.40;99.90
29577;DHT22;16509;53.862;10.672;2022-07-18T15:01:45;26.60;99.90
29577;DHT22;16509;53.862;10.672;2022-07-18T15:04:11;26.60;99.90
29577;DHT22;16509;53.862;10.672;2022-07-18T15:06:36;26.70;99.90
29577;DHT22;16509;53.862;10.672;2022-07-18T15:09:03;26.90;99.90
29577;DHT22;16509;53.862;10.672;2022-07-18T15:11:29;26.90;99.90
29577;DHT22;16509;53.862;10.672;2022-07-18T15:13:55;27.00;99.90
29577;DHT22;16509;53.862;10.672;2022-07-18T15:16:21;27.00;99.90
29577;DHT22;16509;53.862;10.672;2022-07-18T15:18:47;27.10;99.50
29577;DHT22;16509;53.862;10.672;2022-07-18T15:21:12;27.10;99.60
29577;DHT22;16509;53.862;10.672;2022-07-18T15:23:38;27.10;99.90
29577;DHT22;16509;53.862;10.672;2022-07-18T15:26:04;27.20;99.40
29577;DHT22;16509;53.862;10.672;2022-07-18T15:28:29;27.20;99.70
29577;DHT22;16509;53.862;10.672;2022-07-18T15:30:55;27.10;98.80
29577;DHT22;16509;53.862;10.672;2022-07-18T15:33:21;27.20;99.40
29577;DHT22;16509;53.862;10.672;2022-07-18T15:35:46;27.10;99.80
29577;DHT22;16509;53.862;10.672;2022-07-18T15:38:12;27.40;99.40
29577;DHT22;16509;53.862;10.672;2022-07-18T15:40:37;27.20;99.10
29577;DHT22;16509;53.862;10.672;2022-07-18T15:43:03;27.00;99.40
29577;DHT22;16509;53.862;10.672;2022-07-18T15:45:29;27.00;99.40
29577;DHT22;16509;53.862;10.672;2022-07-18T15:47:54;27.00;99.50
29577;DHT22;16509;53.862;10.672;2022-07-18T15:50:20;27.00;99.30
29577;DHT22;16509;53.862;10.672;2022-07-18T15:52:46;27.00;99.50
29577;DHT22;16509;53.862;10.672;2022-07-18T15:55:12;27.00;99.90
29577;DHT22;16509;53.862;10.672;2022-07-18T15:57:37;27.00;99.10
29577;DHT22;16509;53.862;10.672;2022-07-18T16:00:04;27.30;99.90
29577;DHT22;16509;53.862;10.672;2022-07-18T16:02:30;27.00;99.80
29577;DHT22;16509;53.862;10.672;2022-07-18T16:04:56;27.00;99.90
29577;DHT22;16509;53.862;10.672;2022-07-18T16:07:21;26.90;98.70
29577;DHT22;16509;53.862;10.672;2022-07-18T16:09:47;26.90;99.90
29577;DHT22;16509;53.862;10.672;2022-07-18T16:12:14;26.80;99.00